Time;durP1;ratioP1;P1;durP2;ratioP2;P2;SDS_P1;SDS_P2;PMS_P1;PMS_P2;Temp;Humidity;BMP_temperature;BMP_pressure;BME280_temperature;BME280_humidity;BME280_pressure;Samples;Min_cycle;Max_cycle;Signal;HPM_P1;HPM_P2
2022/05/15 00:05:04;;;;;;;17.17;5.35;;;;;;;;;;10278759;28;20136;-66
2022/05/15 00:10:02;;;;;;;16.50;5.05;;;;;;;;;;10269004;28;20048;-67
2022/05/15 00:14:58;;;;;;;18.05;4.97;;;;;;;;;;10264181;28;20045;-66
2022/05/15 00:19:54;;;;;;;21.65;5.40;;;;;;;;;;10268274;28;20538;-64
2022/05/15 00:24:51;;;;;;;21.17;5.65;;;;;;;;;;10268752;28;20636;-68
2022/05/15 00:29:47;;;;;;;15.70;4.60;;;;;;;;;;10272990;28;20541;-68
2022/05/15 00:34:43;;;;;;;23.98;6.47;;;;;;;;;;10271609;28;20131;-68
2022/05/15 00:39:39;;;;;;;21.25;6.00;;;;;;;;;;10268515;28;20479;-64
2022/05/15 00:44:36;;;;;;;21.70;5.75;;;;;;;;;;10271186;28;20099;-65
2022/05/15 00:49:34;;;;;;;20.50;5.93;;;;;;;;;;10269484;28;20721;-64
2022/05/15 00:54:35;;;;;;;20.95;5.70;;;;;;;;;;10258263;28;20068;-66
2022/05/15 00:59:33;;;;;;;18.98;6.00;;;;;;;;;;10265189;28;20092;-66
2022/05/15 01:04:31;;;;;;;21.15;6.43;;;;;;;;;;10287398;28;20044;-69
2022/05/15 01:09:27;;;;;;;20.58;5.55;;;;;;;;;;10266460;28;20061;-68
2022/05/15 01:14:24;;;;;;;19.15;5.47;;;;;;;;;;10270716;28;20908;-68
2022/05/15 01:19:27;;;;;;;25.42;5.88;;;;;;;;;;10257407;28;20106;-66
2022/05/15 01:24:24;;;;;;;18.00;5.15;;;;;;;;;;10269820;28;20091;-66
2022/05/15 01:29:28;;;;;;;18.92;5.35;;;;;;;;;;10282161;28;20076;-66
2022/05/15 01:34:24;;;;;;;17.52;5.45;;;;;;;;;;10273768;28;20041;-67
2022/05/15 01:39:20;;;;;;;19.92;5.95;;;;;;;;;;10301245;28;20098;-67
2022/05/15 01:44:17;;;;;;;19.30;5.90;;;;;;;;;;10274071;28;20091;-69
2022/05/15 01:49:13;;;;;;;18.35;6.30;;;;;;;;;;10278032;28;20095;-67
2022/05/15 01:54:10;;;;;;;24.23;6.63;;;;;;;;;;10275596;28;20166;-66
2022/05/15 01:59:08;;;;;;;21.73;5.97;;;;;;;;;;10263926;28;20167;-70
2022/05/15 02:04:04;;;;;;;17.90;5.90;;;;;;;;;;10275631;28;20147;-69
2022/05/15 02:09:01;;;;;;;15.07;5.63;;;;;;;;;;10273174;28;20051;-68
2022/05/15 02:13:57;;;;;;;25.25;6.32;;;;;;;;;;10285744;28;20135;-68
2022/05/15 02:18:53;;;;;;;21.10;6.10;;;;;;;;;;10287032;28;20136;-68
2022/05/15 02:23:50;;;;;;;13.70;5.70;;;;;;;;;;10275700;28;20155;-69
2022/05/15 02:28:46;;;;;;;22.38;6.78;;;;;;;;;;10279528;28;20506;-71
2022/05/15 02:33:42;;;;;;;19.90;6.18;;;;;;;;;;10269749;28;20483;-71
2022/05/15 02:38:39;;;;;;;19.42;6.65;;;;;;;;;;10275396;28;20148;-69
2022/05/15 02:43:36;;;;;;;22.23;7.03;;;;;;;;;;10266920;28;20067;-69
2022/05/15 02:53:47;;;;;;;20.08;5.97;;;;;;;;;;10257484;28;20099;-69
2022/05/15 02:58:43;;;;;;;21.02;6.05;;;;;;;;;;10292890;28;20080;-69
2022/05/15 03:03:39;;;;;;;22.00;7.00;;;;;;;;;;10251717;28;20073;-69
2022/05/15 03:08:37;;;;;;;20.90;7.20;;;;;;;;;;10275213;28;20045;-66
2022/05/15 03:13:35;;;;;;;22.05;6.97;;;;;;;;;;10266242;28;20504;-69
2022/05/15 03:18:32;;;;;;;24.00;7.40;;;;;;;;;;10265815;28;20128;-69
2022/05/15 03:23:28;;;;;;;20.35;6.85;;;;;;;;;;10267488;28;20447;-70
2022/05/15 03:28:25;;;;;;;22.80;7.55;;;;;;;;;;10270413;28;20164;-69
2022/05/15 03:33:21;;;;;;;29.42;7.72;;;;;;;;;;10269894;28;20131;-69
2022/05/15 03:38:18;;;;;;;20.23;6.38;;;;;;;;;;10277806;28;20075;-70
2022/05/15 03:43:14;;;;;;;21.67;7.95;;;;;;;;;;10267996;28;20069;-68
2022/05/15 03:48:10;;;;;;;21.30;8.00;;;;;;;;;;10278177;28;20045;-67
2022/05/15 03:53:07;;;;;;;23.20;7.22;;;;;;;;;;10269844;28;20738;-67
2022/05/15 03:58:03;;;;;;;21.10;7.88;;;;;;;;;;10259906;28;20048;-64
2022/05/15 04:02:59;;;;;;;26.25;9.30;;;;;;;;;;10269933;28;20044;-65
2022/05/15 04:07:56;;;;;;;26.17;8.65;;;;;;;;;;10263530;28;20055;-65
2022/05/15 04:12:53;;;;;;;22.08;8.23;;;;;;;;;;10264733;28;20080;-68
2022/05/15 04:17:50;;;;;;;27.00;10.23;;;;;;;;;;10260999;28;20136;-68
2022/05/15 04:22:46;;;;;;;23.17;8.90;;;;;;;;;;10269818;28;20148;-69
2022/05/15 04:27:43;;;;;;;25.42;9.18;;;;;;;;;;10258827;28;20079;-70
2022/05/15 04:32:41;;;;;;;30.27;10.25;;;;;;;;;;10269377;28;20136;-70
2022/05/15 04:37:40;;;;;;;24.35;11.07;;;;;;;;;;10263066;28;20388;-70
2022/05/15 04:42:37;;;;;;;22.45;8.77;;;;;;;;;;10267239;28;20041;-67
2022/05/15 04:47:33;;;;;;;27.65;9.98;;;;;;;;;;10274567;28;20087;-72
2022/05/15 04:52:30;;;;;;;23.35;8.88;;;;;;;;;;10268083;28;20106;-67
2022/05/15 04:57:26;;;;;;;18.80;9.13;;;;;;;;;;10276090;28;20459;-66
2022/05/15 05:02:22;;;;;;;22.02;8.45;;;;;;;;;;10253485;28;20079;-69
2022/05/15 05:07:18;;;;;;;24.60;9.43;;;;;;;;;;10250467;28;20141;-69
2022/05/15 05:12:15;;;;;;;19.23;8.73;;;;;;;;;;10265322;28;20076;-69
2022/05/15 05:17:11;;;;;;;26.05;8.45;;;;;;;;;;10256204;28;20041;-67
2022/05/15 05:22:08;;;;;;;17.55;8.35;;;;;;;;;;10265402;28;20099;-66
2022/05/15 05:27:05;;;;;;;20.92;7.82;;;;;;;;;;10245554;28;20127;-66
2022/05/15 05:32:01;;;;;;;19.83;7.18;;;;;;;;;;10272991;28;20418;-66
2022/05/15 05:36:58;;;;;;;22.08;8.25;;;;;;;;;;10290784;28;20678;-66
2022/05/15 05:41:54;;;;;;;23.48;7.07;;;;;;;;;;10268593;28;20084;-66
2022/05/15 05:46:50;;;;;;;22.75;7.30;;;;;;;;;;10285260;28;20503;-66
2022/05/15 05:51:47;;;;;;;20.42;6.78;;;;;;;;;;10273196;28;20526;-65
2022/05/15 05:56:43;;;;;;;20.33;6.35;;;;;;;;;;10287514;28;20117;-65
2022/05/15 06:01:40;;;;;;;20.10;6.35;;;;;;;;;;10272937;28;20126;-65
2022/05/15 06:06:38;;;;;;;14.48;5.18;;;;;;;;;;10283406;28;20498;-65
2022/05/15 06:11:35;;;;;;;15.88;4.07;;;;;;;;;;10269784;28;20703;-64
2022/05/15 06:16:31;;;;;;;19.52;5.00;;;;;;;;;;10281071;28;20574;-64
2022/05/15 06:21:28;;;;;;;11.13;3.38;;;;;;;;;;10274239;28;20045;-66
2022/05/15 06:26:24;;;;;;;9.95;3.20;;;;;;;;;;10285776;28;20078;-65
2022/05/15 06:31:20;;;;;;;8.27;2.42;;;;;;;;;;10277926;28;20127;-68
2022/05/15 06:36:16;;;;;;;8.20;2.30;;;;;;;;;;10283816;28;20052;-68
2022/05/15 06:41:13;;;;;;;10.98;2.63;;;;;;;;;;10279523;28;20049;-68
2022/05/15 06:46:09;;;;;;;9.52;2.15;;;;;;;;;;10270702;28;20068;-69
2022/05/15 06:51:06;;;;;;;7.28;1.90;;;;;;;;;;10271747;28;20064;-69
2022/05/15 07:01:17;;;;;;;6.35;2.03;;;;;;;;;;10272208;28;20095;-67
2022/05/15 07:06:15;;;;;;;8.27;1.55;;;;;;;;;;10281241;28;20124;-68
2022/05/15 07:11:12;;;;;;;6.78;1.52;;;;;;;;;;10268765;28;20654;-66
2022/05/15 07:16:11;;;;;;;7.18;1.50;;;;;;;;;;10264024;28;20049;-67
2022/05/15 07:21:08;;;;;;;7.90;1.73;;;;;;;;;;10266208;28;20090;-66
2022/05/15 07:26:04;;;;;;;4.47;1.05;;;;;;;;;;10266749;28;20076;-66
2022/05/15 07:31:01;;;;;;;5.78;1.42;;;;;;;;;;10290019;28;20775;-65
2022/05/15 07:35:57;;;;;;;5.88;1.65;;;;;;;;;;10273582;28;20106;-66
2022/05/15 07:40:54;;;;;;;8.20;2.33;;;;;;;;;;10269031;28;20548;-66
2022/05/15 07:45:50;;;;;;;4.28;1.10;;;;;;;;;;10274481;28;20041;-65
2022/05/15 07:50:48;;;;;;;3.83;1.10;;;;;;;;;;10252289;28;20076;-66
2022/05/15 07:55:44;;;;;;;5.45;1.10;;;;;;;;;;10241103;28;20498;-71
2022/05/15 08:00:40;;;;;;;2.80;0.90;;;;;;;;;;10225915;28;20136;-73
2022/05/15 08:10:53;;;;;;;4.00;0.75;;;;;;;;;;10243619;28;20676;-68
2022/05/15 08:15:49;;;;;;;2.35;0.60;;;;;;;;;;10244932;28;20525;-64
2022/05/15 08:26:05;;;;;;;1.70;0.60;;;;;;;;;;10241323;28;20514;-65
2022/05/15 08:31:02;;;;;;;1.88;0.50;;;;;;;;;;10241624;28;20121;-66
2022/05/15 08:35:59;;;;;;;3.35;0.80;;;;;;;;;;10247180;28;20051;-64
2022/05/15 08:40:59;;;;;;;2.38;0.60;;;;;;;;;;10268926;28;20136;-64
2022/05/15 08:46:13;;;;;;;3.47;0.70;;;;;;;;;;10267051;28;20288;-65
2022/05/15 08:51:12;;;;;;;3.13;0.80;;;;;;;;;;10254393;28;20120;-65
2022/05/15 08:56:09;;;;;;;2.55;0.73;;;;;;;;;;10264028;28;20087;-67
2022/05/15 09:01:07;;;;;;;2.47;0.60;;;;;;;;;;10248125;28;20068;-67
2022/05/15 09:06:07;;;;;;;3.15;0.90;;;;;;;;;;10237200;28;20049;-66
2022/05/15 09:11:06;;;;;;;3.35;1.02;;;;;;;;;;10240521;28;20045;-65
2022/05/15 09:16:03;;;;;;;3.63;0.70;;;;;;;;;;10244506;28;20053;-64
2022/05/15 09:21:18;;;;;;;3.17;0.82;;;;;;;;;;10229314;28;20041;-65
2022/05/15 09:26:16;;;;;;;3.97;1.00;;;;;;;;;;10246018;28;20037;-65
2022/05/15 09:31:18;;;;;;;5.00;0.80;;;;;;;;;;10252253;28;20131;-65
2022/05/15 09:36:15;;;;;;;2.72;0.77;;;;;;;;;;10255140;28;20053;-64
2022/05/15 09:46:38;;;;;;;2.08;0.63;;;;;;;;;;10237905;28;20136;-65
2022/05/15 09:51:52;;;;;;;2.20;0.50;;;;;;;;;;10237071;28;20048;-64
2022/05/15 09:56:49;;;;;;;3.65;0.70;;;;;;;;;;10228193;28;20800;-66
2022/05/15 10:01:50;;;;;;;2.50;0.60;;;;;;;;;;10219479;28;20134;-65
2022/05/15 10:07:06;;;;;;;3.40;0.70;;;;;;;;;;10228083;28;20062;-65
2022/05/15 10:12:08;;;;;;;2.40;0.77;;;;;;;;;;10223636;28;20098;-66
2022/05/15 10:17:05;;;;;;;4.00;0.55;;;;;;;;;;10223992;28;20653;-66
2022/05/15 10:22:25;;;;;;;3.10;0.70;;;;;;;;;;10145011;28;20082;-65
2022/05/15 10:27:45;;;;;;;4.60;0.80;;;;;;;;;;10141318;28;20916;-65
2022/05/15 10:32:53;;;;;;;2.78;0.80;;;;;;;;;;10231769;28;20049;-65
2022/05/15 10:38:01;;;;;;;2.78;0.60;;;;;;;;;;10233685;28;20053;-66
2022/05/15 10:42:58;;;;;;;2.63;0.47;;;;;;;;;;10227801;28;21379;-64
2022/05/15 10:48:13;;;;;;;3.35;0.77;;;;;;;;;;10232948;28;20598;-68
2022/05/15 10:58:27;;;;;;;4.05;1.20;;;;;;;;;;10226808;28;20424;-68
2022/05/15 11:03:42;;;;;;;1.85;0.60;;;;;;;;;;10237385;28;20146;-69
2022/05/15 11:08:46;;;;;;;3.15;0.90;;;;;;;;;;10250791;28;20049;-69
2022/05/15 11:13:46;;;;;;;2.25;0.70;;;;;;;;;;10239660;28;20087;-69
2022/05/15 11:19:04;;;;;;;4.10;0.98;;;;;;;;;;10249002;28;20053;-68
2022/05/15 11:24:04;;;;;;;2.95;0.60;;;;;;;;;;10240453;28;20132;-69
2022/05/15 11:29:04;;;;;;;6.50;0.80;;;;;;;;;;10241578;28;20045;-69
2022/05/15 11:34:04;;;;;;;2.42;0.77;;;;;;;;;;10243815;28;20139;-68
2022/05/15 11:39:13;;;;;;;2.25;0.57;;;;;;;;;;10240566;28;20073;-68
2022/05/15 11:44:12;;;;;;;4.90;1.27;;;;;;;;;;10242282;28;20135;-69
2022/05/15 11:49:17;;;;;;;2.92;0.80;;;;;;;;;;10241075;28;20071;-68
2022/05/15 11:54:28;;;;;;;3.03;0.70;;;;;;;;;;10243211;28;20161;-68
2022/05/15 11:59:28;;;;;;;3.42;0.80;;;;;;;;;;10247352;28;20045;-68
2022/05/15 12:04:33;;;;;;;4.00;0.90;;;;;;;;;;10238851;28;20476;-68
2022/05/15 12:09:30;;;;;;;2.88;1.15;;;;;;;;;;10246291;28;20439;-68
2022/05/15 12:14:26;;;;;;;2.75;0.75;;;;;;;;;;10246292;28;20084;-68
2022/05/15 12:19:24;;;;;;;3.05;0.75;;;;;;;;;;10245444;28;20048;-69
2022/05/15 12:24:28;;;;;;;2.17;0.60;;;;;;;;;;10240299;28;20047;-68
2022/05/15 12:29:39;;;;;;;3.70;0.75;;;;;;;;;;10249154;28;20045;-68
2022/05/15 12:34:38;;;;;;;3.50;1.13;;;;;;;;;;10245174;28;20554;-68
2022/05/15 12:39:36;;;;;;;2.22;0.77;;;;;;;;;;10242432;28;20653;-68
2022/05/15 12:44:37;;;;;;;4.20;1.10;;;;;;;;;;10242155;28;20107;-69
2022/05/15 12:49:36;;;;;;;4.57;1.60;;;;;;;;;;10246417;28;20084;-69
2022/05/15 12:54:33;;;;;;;6.18;3.78;;;;;;;;;;10259857;28;20141;-69
2022/05/15 12:59:33;;;;;;;3.08;1.25;;;;;;;;;;10249725;28;20080;-69
2022/05/15 13:04:29;;;;;;;2.25;0.90;;;;;;;;;;10240560;28;20052;-69
2022/05/15 13:09:27;;;;;;;3.30;1.00;;;;;;;;;;10242439;28;20088;-69
2022/05/15 13:14:31;;;;;;;3.35;1.15;;;;;;;;;;10260163;28;20120;-69
2022/05/15 13:19:34;;;;;;;4.55;1.10;;;;;;;;;;10261155;28;20135;-68
2022/05/15 13:24:31;;;;;;;3.85;1.05;;;;;;;;;;10259544;28;20144;-69
2022/05/15 13:29:35;;;;;;;3.35;0.90;;;;;;;;;;10258538;28;20041;-69
2022/05/15 13:34:31;;;;;;;5.55;2.22;;;;;;;;;;10249990;28;20045;-69
2022/05/15 13:44:48;;;;;;;3.55;0.85;;;;;;;;;;10247583;28;20099;-69
2022/05/15 13:49:46;;;;;;;2.03;0.70;;;;;;;;;;10245138;28;20513;-67
2022/05/15 13:54:43;;;;;;;5.63;0.88;;;;;;;;;;10248986;28;20140;-68
2022/05/15 13:59:57;;;;;;;3.30;0.85;;;;;;;;;;10244316;28;20641;-68
2022/05/15 14:04:59;;;;;;;4.07;1.00;;;;;;;;;;10229350;28;20132;-68
2022/05/15 14:09:58;;;;;;;2.85;0.90;;;;;;;;;;10245881;28;20094;-69
2022/05/15 14:14:56;;;;;;;5.32;1.10;;;;;;;;;;10237589;28;20136;-68
2022/05/15 14:19:58;;;;;;;5.57;1.33;;;;;;;;;;10230481;28;20108;-68
2022/05/15 14:24:57;;;;;;;2.33;0.75;;;;;;;;;;10245307;28;20053;-68
2022/05/15 14:29:53;;;;;;;4.30;1.02;;;;;;;;;;10246083;28;20140;-68
2022/05/15 14:34:50;;;;;;;4.00;1.10;;;;;;;;;;10236595;28;20045;-68
2022/05/15 14:39:46;;;;;;;3.33;0.85;;;;;;;;;;10238069;28;20136;-69
2022/05/15 14:44:42;;;;;;;3.85;1.13;;;;;;;;;;10233914;28;20068;-68
2022/05/15 14:49:38;;;;;;;2.95;0.95;;;;;;;;;;10232142;28;20162;-68
2022/05/15 14:54:36;;;;;;;3.70;0.90;;;;;;;;;;10266464;28;20527;-68
2022/05/15 14:59:34;;;;;;;3.35;1.00;;;;;;;;;;10211751;28;20127;-68
2022/05/15 15:04:30;;;;;;;2.83;0.82;;;;;;;;;;10210131;28;20056;-68
2022/05/15 15:09:27;;;;;;;3.78;1.00;;;;;;;;;;10216581;28;20516;-64
2022/05/15 15:14:23;;;;;;;2.47;0.82;;;;;;;;;;10215478;28;20045;-63
2022/05/15 15:19:22;;;;;;;4.05;1.08;;;;;;;;;;10235362;28;20045;-63
2022/05/15 15:24:19;;;;;;;3.95;1.40;;;;;;;;;;10275284;28;20142;-63
2022/05/15 15:29:18;;;;;;;4.90;0.98;;;;;;;;;;10248654;28;20072;-64
2022/05/15 15:34:14;;;;;;;3.70;0.70;;;;;;;;;;10233957;28;20136;-63
2022/05/15 15:39:11;;;;;;;3.90;0.90;;;;;;;;;;10251008;28;20057;-64
2022/05/15 15:44:08;;;;;;;4.03;0.75;;;;;;;;;;10242642;28;20490;-63
2022/05/15 15:49:05;;;;;;;3.95;0.90;;;;;;;;;;10240129;28;20116;-63
2022/05/15 15:54:03;;;;;;;3.60;0.77;;;;;;;;;;10232765;28;20048;-63
2022/05/15 15:59:00;;;;;;;3.97;1.13;;;;;;;;;;10236259;28;20051;-63
2022/05/15 16:03:57;;;;;;;2.90;0.85;;;;;;;;;;10240803;28;20065;-63
2022/05/15 16:08:54;;;;;;;4.32;1.08;;;;;;;;;;10245599;28;20132;-63
2022/05/15 16:13:50;;;;;;;2.90;0.82;;;;;;;;;;10234314;28;20076;-63
2022/05/15 16:18:47;;;;;;;2.85;0.90;;;;;;;;;;10260868;28;20136;-63
2022/05/15 16:23:43;;;;;;;8.30;3.40;;;;;;;;;;10218263;28;20132;-63
2022/05/15 16:28:40;;;;;;;1.58;0.63;;;;;;;;;;10207383;28;20103;-63
2022/05/15 16:33:38;;;;;;;4.70;2.10;;;;;;;;;;10218686;28;20164;-63
2022/05/15 16:38:36;;;;;;;3.30;1.10;;;;;;;;;;10225332;28;20621;-63
2022/05/15 16:43:33;;;;;;;2.35;0.75;;;;;;;;;;10224322;28;20119;-63
2022/05/15 16:48:29;;;;;;;15.80;7.20;;;;;;;;;;10220374;28;20042;-63
2022/05/15 16:53:25;;;;;;;3.15;0.77;;;;;;;;;;10261057;28;20118;-63
2022/05/15 16:58:22;;;;;;;2.78;0.65;;;;;;;;;;10252734;28;20483;-63
2022/05/15 17:03:18;;;;;;;2.70;0.85;;;;;;;;;;10243065;28;20531;-63
2022/05/15 17:08:15;;;;;;;2.90;0.82;;;;;;;;;;10236775;28;20404;-63
2022/05/15 17:13:12;;;;;;;2.42;0.90;;;;;;;;;;10236810;28;20045;-63
2022/05/15 17:18:09;;;;;;;3.22;1.00;;;;;;;;;;10231392;28;20143;-63
2022/05/15 17:23:12;;;;;;;2.78;0.73;;;;;;;;;;10227034;28;20044;-63
2022/05/15 17:28:11;;;;;;;2.50;0.90;;;;;;;;;;10237199;28;20128;-63
2022/05/15 17:38:24;;;;;;;4.18;0.98;;;;;;;;;;10218841;28;20133;-63
2022/05/15 17:43:20;;;;;;;2.95;0.85;;;;;;;;;;10229000;28;20076;-63
2022/05/15 17:48:17;;;;;;;3.45;1.10;;;;;;;;;;10228827;28;20128;-63
2022/05/15 17:53:14;;;;;;;2.97;0.75;;;;;;;;;;10238656;28;20053;-62
2022/05/15 17:58:11;;;;;;;4.00;0.90;;;;;;;;;;10236888;28;20136;-62
2022/05/15 18:03:08;;;;;;;6.40;0.90;;;;;;;;;;10229414;28;20100;-63
2022/05/15 18:08:05;;;;;;;3.72;0.98;;;;;;;;;;10233181;28;20803;-63
2022/05/15 18:13:03;;;;;;;3.85;1.05;;;;;;;;;;10229076;28;20048;-63
2022/05/15 18:18:00;;;;;;;6.35;1.13;;;;;;;;;;10238900;28;20418;-63
2022/05/15 18:22:57;;;;;;;4.93;1.05;;;;;;;;;;10241866;28;20033;-63
2022/05/15 18:27:53;;;;;;;4.20;1.10;;;;;;;;;;10243741;28;20053;-63
2022/05/15 18:32:54;;;;;;;4.07;1.20;;;;;;;;;;10242890;28;20049;-63
2022/05/15 18:37:51;;;;;;;5.00;1.15;;;;;;;;;;10257146;28;20044;-63
2022/05/15 18:42:48;;;;;;;4.20;1.02;;;;;;;;;;10269641;28;20530;-63
2022/05/15 18:47:45;;;;;;;4.15;1.17;;;;;;;;;;10256001;28;20045;-63
2022/05/15 18:57:57;;;;;;;5.10;1.13;;;;;;;;;;10240771;28;20497;-63
2022/05/15 19:02:53;;;;;;;4.10;0.90;;;;;;;;;;10233912;28;20138;-63
2022/05/15 19:07:50;;;;;;;5.50;1.13;;;;;;;;;;10243498;28;20499;-63
2022/05/15 19:12:55;;;;;;;10.53;1.27;;;;;;;;;;10243981;28;20041;-63
2022/05/15 19:17:51;;;;;;;3.20;0.90;;;;;;;;;;10239337;28;20152;-63
2022/05/15 19:22:48;;;;;;;4.90;1.30;;;;;;;;;;10240427;28;20132;-63
2022/05/15 19:27:44;;;;;;;5.30;1.20;;;;;;;;;;10235709;28;20604;-63
2022/05/15 19:32:40;;;;;;;4.22;1.17;;;;;;;;;;10241228;28;20135;-63
2022/05/15 19:37:37;;;;;;;4.25;0.85;;;;;;;;;;10231903;28;20724;-63
2022/05/15 19:42:33;;;;;;;4.85;1.00;;;;;;;;;;10236623;28;20076;-63
2022/05/15 19:47:31;;;;;;;5.10;1.55;;;;;;;;;;10237098;28;20096;-63
2022/05/15 19:52:28;;;;;;;3.67;1.08;;;;;;;;;;10245225;28;20080;-63
2022/05/15 19:57:26;;;;;;;2.75;0.85;;;;;;;;;;10248747;28;20048;-62
2022/05/15 20:02:22;;;;;;;4.60;0.95;;;;;;;;;;10177580;28;20075;-62
2022/05/15 20:12:54;;;;;;;5.63;1.10;;;;;;;;;;10143937;28;20141;-63
2022/05/15 20:17:51;;;;;;;5.25;1.10;;;;;;;;;;10168439;28;20076;-63
2022/05/15 20:22:48;;;;;;;4.45;1.10;;;;;;;;;;10234515;28;20488;-62
2022/05/15 20:27:44;;;;;;;7.20;1.10;;;;;;;;;;10235459;28;20145;-62
2022/05/15 20:32:40;;;;;;;3.58;0.90;;;;;;;;;;10230722;28;20128;-62
2022/05/15 20:37:37;;;;;;;3.97;0.73;;;;;;;;;;10235119;28;20076;-64
2022/05/15 20:42:33;;;;;;;4.63;1.05;;;;;;;;;;10251615;28;20104;-64
2022/05/15 20:47:29;;;;;;;4.32;1.30;;;;;;;;;;10265258;28;20090;-65
2022/05/15 20:52:26;;;;;;;3.25;0.85;;;;;;;;;;10254954;28;20480;-64
2022/05/15 20:57:23;;;;;;;4.80;0.95;;;;;;;;;;10276278;28;20056;-63
2022/05/15 21:02:19;;;;;;;2.90;0.98;;;;;;;;;;10194668;28;20066;-64
2022/05/15 21:07:15;;;;;;;3.22;0.70;;;;;;;;;;10205725;28;20037;-64
2022/05/15 21:12:11;;;;;;;4.18;0.90;;;;;;;;;;10255643;28;20046;-64
2022/05/15 21:17:08;;;;;;;4.15;1.00;;;;;;;;;;10264221;28;20803;-64
2022/05/15 21:22:04;;;;;;;3.78;1.17;;;;;;;;;;10259406;28;20049;-62
2022/05/15 21:27:00;;;;;;;4.43;0.90;;;;;;;;;;10282403;28;20044;-63
2022/05/15 21:31:56;;;;;;;4.53;0.80;;;;;;;;;;10239332;28;20073;-63
2022/05/15 21:36:53;;;;;;;2.67;0.75;;;;;;;;;;10263194;28;20075;-63
2022/05/15 21:47:04;;;;;;;4.63;0.75;;;;;;;;;;10287362;28;20076;-64
2022/05/15 21:52:01;;;;;;;2.20;0.63;;;;;;;;;;10249302;28;20073;-64
2022/05/15 21:56:57;;;;;;;2.95;0.80;;;;;;;;;;10269147;28;20713;-62
2022/05/15 22:01:54;;;;;;;2.42;0.80;;;;;;;;;;10275980;28;20479;-63
2022/05/15 22:06:50;;;;;;;2.88;1.00;;;;;;;;;;10292082;28;20056;-63
2022/05/15 22:11:46;;;;;;;5.15;0.93;;;;;;;;;;10281066;28;20139;-62
2022/05/15 22:16:43;;;;;;;3.78;1.00;;;;;;;;;;10291941;28;20076;-62
2022/05/15 22:21:39;;;;;;;4.38;1.42;;;;;;;;;;10292836;28;20080;-61
2022/05/15 22:26:37;;;;;;;2.38;0.95;;;;;;;;;;10275403;28;20072;-61
2022/05/15 22:31:33;;;;;;;2.97;0.85;;;;;;;;;;10292137;28;20114;-63
2022/05/15 22:36:29;;;;;;;3.50;0.85;;;;;;;;;;10273315;28;20414;-63
2022/05/15 22:41:26;;;;;;;4.78;1.10;;;;;;;;;;10287952;28;20450;-62
2022/05/15 22:46:22;;;;;;;3.03;0.70;;;;;;;;;;10266981;28;20091;-62
2022/05/15 22:51:19;;;;;;;4.28;1.23;;;;;;;;;;10273704;28;20056;-63
2022/05/15 22:56:16;;;;;;;3.28;1.00;;;;;;;;;;10279986;28;20090;-62
2022/05/15 23:01:12;;;;;;;2.90;1.02;;;;;;;;;;10300530;28;20160;-62
2022/05/15 23:11:24;;;;;;;2.95;0.80;;;;;;;;;;10272035;28;20053;-63
2022/05/15 23:16:21;;;;;;;4.07;1.27;;;;;;;;;;10264748;28;20554;-63
2022/05/15 23:21:17;;;;;;;3.00;1.02;;;;;;;;;;10272957;28;20107;-63
2022/05/15 23:26:14;;;;;;;5.65;1.20;;;;;;;;;;10280091;28;20044;-63
2022/05/15 23:31:13;;;;;;;3.67;1.20;;;;;;;;;;10299917;28;20120;-63
2022/05/15 23:36:10;;;;;;;4.43;1.00;;;;;;;;;;10270179;28;20577;-63
2022/05/15 23:41:07;;;;;;;2.70;1.10;;;;;;;;;;10273776;28;20065;-63
2022/05/15 23:46:03;;;;;;;3.83;1.20;;;;;;;;;;10252060;28;20048;-63
2022/05/15 23:51:01;;;;;;;6.22;1.70;;;;;;;;;;10271716;28;20044;-63
2022/05/15 23:55:57;;;;;;;3.55;1.17;;;;;;;;;;10277646;28;20675;-62
